createdAt,value
2019-05-22T00:04:58.187Z,16.49
2019-05-22T00:10:03.913Z,16.18
2019-05-22T00:15:08.474Z,16.23
2019-05-22T00:20:14.438Z,16.27
2019-05-22T00:25:26.675Z,16.67
2019-05-22T00:30:33.567Z,16.02
2019-05-22T00:35:38.653Z,16.01
2019-05-22T00:40:43.078Z,15.91
2019-05-22T00:45:49.679Z,16.07
2019-05-22T00:51:05.111Z,15.94
2019-05-22T00:56:28.975Z,15.81
2019-05-22T01:01:38.896Z,15.84
2019-05-22T01:06:46.779Z,15.87
2019-05-22T01:11:52.482Z,16.18
2019-05-22T01:16:56.843Z,16.00
2019-05-22T01:22:02.228Z,16.15
2019-05-22T01:27:08.249Z,15.87
2019-05-22T01:32:16.087Z,15.90
2019-05-22T01:37:20.634Z,15.93
2019-05-22T01:42:30.404Z,16.01
2019-05-22T01:48:02.642Z,16.01
2019-05-22T01:53:08.407Z,15.94
2019-05-22T01:58:12.963Z,15.77
2019-05-22T02:03:17.909Z,15.71
2019-05-22T02:08:24.034Z,15.48
2019-05-22T02:13:42.370Z,15.48
2019-05-22T02:18:48.467Z,15.53
2019-05-22T02:23:52.882Z,15.40
2019-05-22T02:28:58.902Z,15.50
2019-05-22T02:34:05.186Z,15.38
2019-05-22T02:39:15.665Z,15.69
2019-05-22T02:44:21.125Z,15.56
2019-05-22T02:49:26.459Z,15.51
2019-05-22T02:54:32.679Z,15.83
2019-05-22T02:59:37.507Z,15.52
2019-05-22T03:04:57.655Z,15.55
2019-05-22T03:10:03.604Z,15.54
2019-05-22T03:15:11.085Z,15.45
2019-05-22T03:20:18.918Z,15.19
2019-05-22T03:25:23.335Z,15.35
2019-05-22T03:30:32.773Z,15.30
2019-05-22T03:35:43.549Z,15.31
2019-05-22T03:40:51.268Z,15.14
2019-05-22T03:45:56.490Z,15.29
2019-05-22T03:51:13.596Z,15.24
2019-05-22T03:56:18.291Z,15.29
2019-05-22T04:01:24.228Z,15.10
2019-05-22T04:06:28.568Z,14.92
2019-05-22T04:11:41.909Z,14.92
2019-05-22T04:16:47.424Z,15.04
2019-05-22T04:21:52.049Z,14.97
2019-05-22T04:26:56.763Z,14.93
2019-05-22T04:32:05.735Z,14.66
2019-05-22T04:37:10.790Z,14.68
2019-05-22T04:42:17.471Z,14.90
2019-05-22T04:47:21.966Z,14.80
2019-05-22T04:52:26.611Z,14.75
2019-05-22T04:57:32.147Z,14.62
2019-05-22T05:02:37.248Z,14.35
2019-05-22T05:07:41.807Z,14.42
2019-05-22T05:12:47.099Z,15.14
2019-05-22T05:17:51.551Z,14.86
2019-05-22T05:22:56.031Z,15.30
2019-05-22T05:28:02.468Z,15.01
2019-05-22T05:33:07.540Z,14.82
2019-05-22T05:38:12.760Z,14.33
2019-05-22T05:43:17.749Z,14.15
2019-05-22T05:48:22.646Z,14.33
2019-05-22T05:53:29.145Z,14.21
2019-05-22T05:58:34.674Z,14.45
2019-05-22T06:03:41.456Z,14.44
2019-05-22T06:08:48.070Z,14.25
2019-05-22T06:13:52.608Z,14.47
2019-05-22T06:18:58.415Z,14.18
2019-05-22T06:24:23.888Z,14.24
2019-05-22T06:29:57.252Z,14.31
2019-05-22T06:35:03.959Z,14.01
2019-05-22T06:40:10.428Z,14.18
2019-05-22T06:45:14.799Z,13.98
2019-05-22T06:50:19.579Z,13.87
2019-05-22T06:55:24.105Z,13.94
2019-05-22T07:00:29.565Z,13.91
2019-05-22T07:05:34.002Z,13.98
2019-05-22T07:10:39.131Z,14.06
2019-05-22T07:15:44.298Z,14.17
2019-05-22T07:20:50.545Z,14.21
2019-05-22T07:25:54.990Z,14.03
2019-05-22T07:30:59.447Z,13.79
2019-05-22T07:36:16.507Z,14.19
2019-05-22T07:41:10.506Z,14.18
2019-05-22T07:46:15.297Z,14.09
2019-05-22T07:51:20.196Z,13.91
2019-05-22T07:56:24.820Z,14.00
2019-05-22T08:01:30.202Z,14.11
2019-05-22T08:06:34.792Z,14.01
2019-05-22T08:11:39.778Z,13.80
2019-05-22T08:16:44.313Z,13.87
2019-05-22T08:21:48.958Z,14.12
2019-05-22T08:26:55.155Z,13.90
2019-05-22T08:32:00.709Z,13.94
2019-05-22T08:37:08.375Z,14.16
2019-05-22T08:42:15.023Z,13.88
2019-05-22T08:47:22.923Z,13.92
2019-05-22T08:52:28.795Z,14.35
2019-05-22T08:57:35.447Z,13.76
2019-05-22T09:02:40.446Z,13.97
2019-05-22T09:07:45.696Z,14.00
2019-05-22T09:12:50.153Z,14.07
2019-05-22T09:17:54.787Z,13.74
2019-05-22T09:22:59.785Z,13.45
2019-05-22T09:28:04.494Z,13.17
2019-05-22T09:33:10.635Z,13.42
2019-05-22T09:38:15.154Z,13.20
2019-05-22T09:43:22.833Z,13.15
2019-05-22T09:48:29.265Z,13.35
2019-05-22T09:53:34.971Z,13.10
2019-05-22T09:58:39.412Z,13.22
2019-05-22T10:03:44.053Z,13.21
2019-05-22T10:08:48.456Z,13.19
2019-05-22T10:13:52.976Z,13.44
2019-05-22T10:18:57.377Z,13.61
2019-05-22T10:24:03.876Z,13.26
2019-05-22T10:29:08.403Z,13.14
2019-05-22T10:34:12.974Z,13.25
2019-05-22T10:39:17.444Z,13.43
2019-05-22T10:44:21.872Z,13.32
2019-05-22T10:49:26.257Z,13.28
2019-05-22T10:54:30.633Z,13.37
2019-05-22T10:59:35.203Z,13.47
2019-05-22T11:04:39.845Z,13.69
2019-05-22T11:09:44.197Z,13.16
2019-05-22T11:14:48.560Z,13.38
2019-05-22T11:19:53.074Z,13.22
2019-05-22T11:24:57.451Z,13.25
2019-05-22T11:30:01.845Z,13.33
2019-05-22T11:35:08.860Z,13.26
2019-05-22T11:40:15.195Z,13.04
2019-05-22T11:45:20.677Z,13.34
2019-05-22T11:50:25.569Z,13.35
2019-05-22T11:55:44.190Z,13.43
2019-05-22T12:00:36.880Z,13.49
2019-05-22T12:05:41.405Z,13.49
2019-05-22T12:10:47.021Z,13.52
2019-05-22T12:15:52.474Z,13.67
2019-05-22T12:20:57.206Z,13.76
2019-05-22T12:26:01.630Z,13.72
2019-05-22T12:31:07.007Z,13.64
2019-05-22T12:36:12.291Z,13.84
2019-05-22T12:41:19.009Z,13.99
2019-05-22T12:46:23.622Z,13.71
2019-05-22T12:51:28.524Z,13.65
2019-05-22T12:56:33.063Z,13.49
2019-05-22T13:01:38.781Z,13.34
2019-05-22T13:06:43.210Z,13.29
2019-05-22T13:11:47.726Z,13.38
2019-05-22T13:16:52.685Z,13.31
2019-05-22T13:21:58.662Z,13.24
2019-05-22T13:27:03.069Z,13.42
2019-05-22T13:32:07.748Z,13.49
2019-05-22T13:37:12.166Z,13.55
2019-05-22T13:42:16.554Z,13.49
2019-05-22T13:47:21.766Z,13.48
2019-05-22T13:52:26.292Z,13.20
2019-05-22T13:57:31.418Z,13.65
2019-05-22T14:02:36.068Z,13.18
2019-05-22T14:07:40.449Z,13.04
2019-05-22T14:12:46.323Z,12.99
2019-05-22T14:17:50.662Z,13.19
2019-05-22T14:22:55.279Z,13.48
2019-05-22T14:27:59.691Z,13.35
2019-05-22T14:33:05.410Z,13.49
2019-05-22T14:38:10.253Z,13.40
2019-05-22T14:43:15.812Z,13.33
2019-05-22T14:48:20.569Z,13.05
2019-05-22T14:53:25.312Z,12.87
2019-05-22T14:58:30.020Z,13.07
2019-05-22T15:03:34.863Z,13.01
2019-05-22T15:08:39.233Z,12.84
2019-05-22T15:13:43.792Z,12.81
2019-05-22T15:18:48.142Z,12.95
2019-05-22T15:23:52.794Z,12.98
2019-05-22T15:28:57.342Z,13.18
2019-05-22T15:34:02.867Z,13.00
2019-05-22T15:39:08.939Z,13.03
2019-05-22T15:44:13.800Z,13.13
2019-05-22T15:49:19.567Z,12.99
2019-05-22T15:54:25.012Z,13.25
2019-05-22T15:59:30.221Z,12.89
2019-05-22T16:04:35.472Z,12.94
2019-05-22T16:09:40.904Z,12.79
2019-05-22T16:14:45.452Z,13.05
2019-05-22T16:19:50.450Z,13.07
2019-05-22T16:24:54.890Z,13.08
2019-05-22T16:30:01.176Z,12.78
2019-05-22T16:35:06.990Z,12.75
2019-05-22T16:40:12.342Z,12.84
2019-05-22T16:45:16.862Z,12.74
2019-05-22T16:50:23.025Z,12.89
2019-05-22T16:55:28.323Z,13.11
2019-05-22T17:00:33.282Z,12.85
2019-05-22T17:05:38.896Z,13.06
2019-05-22T17:10:44.397Z,12.91
2019-05-22T17:15:48.819Z,12.96
2019-05-22T17:20:53.312Z,12.87
2019-05-22T17:25:58.718Z,12.70
2019-05-22T17:31:03.285Z,12.78
2019-05-22T17:36:08.010Z,12.66
2019-05-22T17:41:12.801Z,13.01
2019-05-22T17:46:17.777Z,12.71
2019-05-22T17:51:22.297Z,12.78
2019-05-22T17:56:26.649Z,12.77
2019-05-22T18:01:31.385Z,12.89
2019-05-22T18:06:35.900Z,12.76
2019-05-22T18:11:40.408Z,12.56
2019-05-22T18:16:45.384Z,12.69
2019-05-22T18:21:49.819Z,12.84
2019-05-22T18:26:54.196Z,12.96
2019-05-22T18:31:58.585Z,12.86
2019-05-22T18:37:02.996Z,12.82
2019-05-22T18:42:07.467Z,12.88
2019-05-22T18:47:11.881Z,13.00
2019-05-22T18:52:16.403Z,12.87
2019-05-22T18:57:21.165Z,13.02
2019-05-22T19:02:25.838Z,12.80
2019-05-22T19:07:30.195Z,12.88
2019-05-22T19:12:34.619Z,12.96
2019-05-22T19:17:39.470Z,12.81
2019-05-22T19:22:58.529Z,12.84
2019-05-22T19:27:49.953Z,12.92
2019-05-22T19:32:54.350Z,12.90
2019-05-22T19:38:00.634Z,13.15
2019-05-22T19:43:07.060Z,13.07
2019-05-22T19:48:11.463Z,13.00
2019-05-22T19:53:19.269Z,13.22
2019-05-22T19:58:25.072Z,12.89
2019-05-22T20:03:29.460Z,12.80
2019-05-22T20:08:36.249Z,12.93
2019-05-22T20:13:40.836Z,13.10
2019-05-22T20:18:45.237Z,12.98
2019-05-22T20:23:49.789Z,13.21
2019-05-22T20:28:54.966Z,12.79
2019-05-22T20:33:59.805Z,13.06
2019-05-22T20:39:07.170Z,13.01
2019-05-22T20:44:12.137Z,13.01
2019-05-22T20:49:16.477Z,13.13
2019-05-22T20:54:21.289Z,13.18
2019-05-22T20:59:26.348Z,12.97
2019-05-22T21:04:32.692Z,12.94
2019-05-22T21:09:37.757Z,13.18
2019-05-22T21:14:42.599Z,13.01
2019-05-22T21:19:48.205Z,13.09
2019-05-22T21:24:53.388Z,12.76
2019-05-22T21:29:58.319Z,13.04
2019-05-22T21:35:04.142Z,12.95
2019-05-22T21:40:11.031Z,12.93
2019-05-22T21:45:16.439Z,12.90
2019-05-22T21:50:20.965Z,12.85
2019-05-22T21:55:25.578Z,12.85
2019-05-22T22:00:40.614Z,12.75
2019-05-22T22:05:45.348Z,12.75
2019-05-22T22:10:50.372Z,12.80
2019-05-22T22:15:55.071Z,13.05
2019-05-22T22:21:00.113Z,12.88
2019-05-22T22:26:23.267Z,12.90
2019-05-22T22:31:13.078Z,12.77
2019-05-22T22:36:18.048Z,12.70
2019-05-22T22:41:22.665Z,12.70
2019-05-22T22:46:33.782Z,12.77
2019-05-22T22:51:39.241Z,12.66
2019-05-22T22:56:43.913Z,12.80
2019-05-22T23:01:51.690Z,12.77
2019-05-22T23:06:58.562Z,12.75
2019-05-22T23:12:04.456Z,12.69
2019-05-22T23:17:11.285Z,12.73
2019-05-22T23:22:15.920Z,12.74
2019-05-22T23:27:21.042Z,12.85
2019-05-22T23:32:27.172Z,12.88
2019-05-22T23:37:31.804Z,12.90
2019-05-22T23:42:39.691Z,12.78
2019-05-22T23:47:59.019Z,12.95
2019-05-22T23:53:05.126Z,12.83
2019-05-22T23:58:12.186Z,12.79
